OYPSJ EKRN-EKSB
Flight info
| Callsign | OYPSJ |
|---|---|
| Flight time | 0h 44m |
| Altitude | 17000 |
| Route | ROE DCT SUP DCT KAS DCT ODN DCT VAM DCT KELEP |
| Aircraft | E55P/M-SBDFGHJ2RWY/LB2 |
Departure
| Time | 2026-04-28 18:24 |
|---|---|
| Airport | Bornholm Airport (EKRN) |
Arrival
| Time | 2026-04-28 19:08 |
|---|---|
| Airport | Sønderborg Airport (EKSB) |
| Time | Latitude | Longitude | Altitude | Speed | Heading |
|---|---|---|---|---|---|
| 2026-04-28 18:01 | 55.06849 | 14.74593 | 50 ft | 0 kts | 310° |
| 2026-04-28 18:20 | 55.06850 | 14.74593 | 50 ft | 0 kts | 310° |
| 2026-04-28 18:20 | 55.06850 | 14.74592 | 50 ft | 0 kts | 310° |
| 2026-04-28 18:21 | 55.06855 | 14.74584 | 50 ft | 1 kts | 335° |
| 2026-04-28 18:21 | 55.06866 | 14.74591 | 50 ft | 2 kts | 79° |
| 2026-04-28 18:21 | 55.06857 | 14.74620 | 50 ft | 3 kts | 125° |
| 2026-04-28 18:21 | 55.06836 | 14.74643 | 50 ft | 4 kts | 186° |
| 2026-04-28 18:22 | 55.06805 | 14.74609 | 50 ft | 6 kts | 223° |
| 2026-04-28 18:22 | 55.06779 | 14.74537 | 50 ft | 7 kts | 246° |
| 2026-04-28 18:22 | 55.06733 | 14.74473 | 50 ft | 9 kts | 202° |
| 2026-04-28 18:22 | 55.06687 | 14.74522 | 50 ft | 5 kts | 115° |
| 2026-04-28 18:23 | 55.06682 | 14.74539 | 50 ft | 0 kts | 115° |
| 2026-04-28 18:23 | 55.06681 | 14.74542 | 50 ft | 1 kts | 115° |
| 2026-04-28 18:23 | 55.06649 | 14.74669 | 50 ft | 36 kts | 115° |
| 2026-04-28 18:23 | 55.06444 | 14.75488 | 52 ft | 109 kts | 115° |
| 2026-04-28 18:24 | 55.06078 | 14.76961 | 255 ft | 148 kts | 115° |
| 2026-04-28 18:24 | 55.05782 | 14.78114 | 683 ft | 161 kts | 115° |
| 2026-04-28 18:24 | 55.05150 | 14.80610 | 1350 ft | 174 kts | 115° |
| 2026-04-28 18:24 | 55.04655 | 14.82499 | 1777 ft | 178 kts | 114° |
| 2026-04-28 18:25 | 55.04115 | 14.84557 | 2202 ft | 198 kts | 110° |
| 2026-04-28 18:25 | 55.04124 | 14.86883 | 2590 ft | 197 kts | 64° |
| 2026-04-28 18:25 | 55.05067 | 14.88588 | 3018 ft | 205 kts | 30° |
| 2026-04-28 18:26 | 55.07670 | 14.87567 | 3838 ft | 204 kts | 318° |
| 2026-04-28 18:26 | 55.08590 | 14.85581 | 4369 ft | 221 kts | 307° |
| 2026-04-28 18:26 | 55.09447 | 14.83207 | 4926 ft | 237 kts | 303° |
| 2026-04-28 18:26 | 55.10279 | 14.80645 | 5468 ft | 251 kts | 303° |
| 2026-04-28 18:27 | 55.11140 | 14.77915 | 6009 ft | 264 kts | 303° |
| 2026-04-28 18:27 | 55.12030 | 14.75063 | 6545 ft | 275 kts | 303° |
| 2026-04-28 18:27 | 55.12953 | 14.72093 | 7199 ft | 281 kts | 303° |
| 2026-04-28 18:27 | 55.13879 | 14.69109 | 8063 ft | 283 kts | 303° |
| 2026-04-28 18:28 | 55.14775 | 14.66200 | 9339 ft | 269 kts | 304° |
| 2026-04-28 18:28 | 55.15653 | 14.63374 | 10336 ft | 266 kts | 304° |
| 2026-04-28 18:28 | 55.16539 | 14.60520 | 11088 ft | 272 kts | 304° |
| 2026-04-28 18:28 | 55.17439 | 14.57610 | 11851 ft | 276 kts | 304° |
| 2026-04-28 18:29 | 55.18348 | 14.54656 | 12678 ft | 279 kts | 305° |
| 2026-04-28 18:29 | 55.19261 | 14.51696 | 13463 ft | 282 kts | 304° |
| 2026-04-28 18:29 | 55.20193 | 14.48670 | 14252 ft | 284 kts | 304° |
| 2026-04-28 18:29 | 55.21125 | 14.45640 | 15038 ft | 286 kts | 304° |
| 2026-04-28 18:30 | 55.22066 | 14.42575 | 15794 ft | 289 kts | 304° |
| 2026-04-28 18:30 | 55.22375 | 14.41572 | 16021 ft | 290 kts | 304° |
| 2026-04-28 18:30 | 55.23972 | 14.36351 | 17205 ft | 291 kts | 304° |
| 2026-04-28 18:30 | 55.24930 | 14.33209 | 17346 ft | 295 kts | 304° |
| 2026-04-28 18:31 | 55.25901 | 14.30041 | 17366 ft | 295 kts | 303° |
| 2026-04-28 18:31 | 55.26876 | 14.26835 | 17366 ft | 295 kts | 303° |
| 2026-04-28 18:31 | 55.27847 | 14.23650 | 17369 ft | 296 kts | 303° |
| 2026-04-28 18:31 | 55.28804 | 14.20502 | 17369 ft | 296 kts | 303° |
| 2026-04-28 18:32 | 55.29771 | 14.17314 | 17367 ft | 297 kts | 303° |
| 2026-04-28 18:32 | 55.30748 | 14.14102 | 17369 ft | 298 kts | 303° |
| 2026-04-28 18:32 | 55.31716 | 14.10899 | 17366 ft | 298 kts | 303° |
| 2026-04-28 18:32 | 55.32693 | 14.07673 | 17360 ft | 299 kts | 303° |
| 2026-04-28 18:33 | 55.33659 | 14.04471 | 17363 ft | 299 kts | 303° |
| 2026-04-28 18:33 | 55.34642 | 14.01214 | 17369 ft | 299 kts | 303° |
| 2026-04-28 18:33 | 55.35606 | 13.98009 | 17370 ft | 300 kts | 303° |
| 2026-04-28 18:33 | 55.36586 | 13.94758 | 17364 ft | 300 kts | 303° |
| 2026-04-28 18:34 | 55.37557 | 13.91521 | 17360 ft | 300 kts | 304° |
| 2026-04-28 18:34 | 55.38520 | 13.88303 | 17361 ft | 300 kts | 303° |
| 2026-04-28 18:34 | 55.39496 | 13.85059 | 17359 ft | 300 kts | 303° |
| 2026-04-28 18:34 | 55.40471 | 13.81793 | 17362 ft | 300 kts | 304° |
| 2026-04-28 18:35 | 55.41437 | 13.78559 | 17359 ft | 300 kts | 304° |
| 2026-04-28 18:35 | 55.42408 | 13.75305 | 17354 ft | 300 kts | 303° |
| 2026-04-28 18:35 | 55.43372 | 13.72081 | 17373 ft | 300 kts | 303° |
| 2026-04-28 18:35 | 55.44338 | 13.68818 | 17357 ft | 301 kts | 304° |
| 2026-04-28 18:36 | 55.45312 | 13.65546 | 17339 ft | 300 kts | 304° |
| 2026-04-28 18:36 | 55.46276 | 13.62294 | 17350 ft | 300 kts | 304° |
| 2026-04-28 18:36 | 55.47240 | 13.59050 | 17358 ft | 300 kts | 304° |
| 2026-04-28 18:36 | 55.48198 | 13.55807 | 17357 ft | 301 kts | 303° |
| 2026-04-28 18:37 | 55.49155 | 13.52566 | 17347 ft | 301 kts | 303° |
| 2026-04-28 18:37 | 55.50130 | 13.49261 | 17353 ft | 301 kts | 303° |
| 2026-04-28 18:37 | 55.51089 | 13.46000 | 17353 ft | 302 kts | 304° |
| 2026-04-28 18:37 | 55.52062 | 13.42705 | 17353 ft | 302 kts | 304° |
| 2026-04-28 18:38 | 55.53032 | 13.39399 | 17349 ft | 303 kts | 303° |
| 2026-04-28 18:38 | 55.53639 | 13.35839 | 17359 ft | 315 kts | 283° |
| 2026-04-28 18:38 | 55.53909 | 13.31965 | 17350 ft | 314 kts | 284° |
| 2026-04-28 18:38 | 55.54200 | 13.28137 | 17343 ft | 315 kts | 284° |
| 2026-04-28 18:39 | 55.54484 | 13.24332 | 17340 ft | 315 kts | 284° |
| 2026-04-28 18:39 | 55.54777 | 13.20483 | 17340 ft | 316 kts | 284° |
| 2026-04-28 18:39 | 55.55062 | 13.16645 | 17340 ft | 316 kts | 284° |
| 2026-04-28 18:39 | 55.55349 | 13.12760 | 17341 ft | 316 kts | 284° |
| 2026-04-28 18:40 | 55.55629 | 13.08969 | 17335 ft | 316 kts | 284° |
| 2026-04-28 18:40 | 55.55915 | 13.05093 | 17336 ft | 316 kts | 284° |
| 2026-04-28 18:40 | 55.56197 | 13.01242 | 17330 ft | 316 kts | 284° |
| 2026-04-28 18:40 | 55.56477 | 12.97424 | 17340 ft | 315 kts | 284° |
| 2026-04-28 18:41 | 55.56755 | 12.93586 | 17337 ft | 315 kts | 284° |
| 2026-04-28 18:41 | 55.57038 | 12.89697 | 17349 ft | 315 kts | 284° |
| 2026-04-28 18:41 | 55.57315 | 12.85870 | 17344 ft | 316 kts | 284° |
| 2026-04-28 18:41 | 55.57591 | 12.82017 | 17353 ft | 316 kts | 284° |
| 2026-04-28 18:42 | 55.57867 | 12.78174 | 17352 ft | 316 kts | 284° |
| 2026-04-28 18:42 | 55.58140 | 12.74300 | 17356 ft | 316 kts | 284° |
| 2026-04-28 18:42 | 55.58417 | 12.70411 | 17356 ft | 316 kts | 284° |
| 2026-04-28 18:42 | 55.58685 | 12.66594 | 17356 ft | 316 kts | 284° |
| 2026-04-28 18:43 | 55.58957 | 12.62710 | 17356 ft | 316 kts | 284° |
| 2026-04-28 18:43 | 55.59078 | 12.58805 | 17362 ft | 321 kts | 276° |
| 2026-04-28 18:43 | 55.59074 | 12.54867 | 17366 ft | 321 kts | 277° |
| 2026-04-28 18:43 | 55.59084 | 12.50912 | 17367 ft | 321 kts | 277° |
| 2026-04-28 18:44 | 55.59089 | 12.46979 | 17365 ft | 322 kts | 277° |
| 2026-04-28 18:44 | 55.59101 | 12.39057 | 17371 ft | 322 kts | 277° |
| 2026-04-28 18:44 | 55.59107 | 12.35105 | 17372 ft | 322 kts | 277° |
| 2026-04-28 18:45 | 55.59110 | 12.31151 | 17377 ft | 322 kts | 276° |
| 2026-04-28 18:45 | 55.59110 | 12.27146 | 17381 ft | 323 kts | 276° |
| 2026-04-28 18:45 | 55.59112 | 12.23175 | 17374 ft | 323 kts | 276° |
| 2026-04-28 18:45 | 55.59111 | 12.19226 | 17378 ft | 323 kts | 276° |
| 2026-04-28 18:46 | 55.59108 | 12.15296 | 17379 ft | 323 kts | 276° |
| 2026-04-28 18:46 | 55.59106 | 12.11299 | 17382 ft | 323 kts | 276° |
| 2026-04-28 18:46 | 55.59102 | 12.07365 | 17379 ft | 323 kts | 276° |
| 2026-04-28 18:46 | 55.59096 | 12.03354 | 17380 ft | 323 kts | 276° |
| 2026-04-28 18:47 | 55.59090 | 11.99393 | 17379 ft | 323 kts | 276° |
| 2026-04-28 18:47 | 55.59082 | 11.95445 | 17390 ft | 324 kts | 276° |
| 2026-04-28 18:47 | 55.59072 | 11.91459 | 17385 ft | 324 kts | 276° |
| 2026-04-28 18:47 | 55.59060 | 11.87475 | 17390 ft | 324 kts | 276° |
| 2026-04-28 18:48 | 55.59049 | 11.83484 | 17384 ft | 324 kts | 276° |
| 2026-04-28 18:48 | 55.59036 | 11.79545 | 17381 ft | 324 kts | 276° |
| 2026-04-28 18:48 | 55.59019 | 11.75529 | 17388 ft | 324 kts | 276° |
| 2026-04-28 18:48 | 55.59005 | 11.71538 | 17377 ft | 324 kts | 276° |
| 2026-04-28 18:49 | 55.58987 | 11.67592 | 17376 ft | 324 kts | 276° |
| 2026-04-28 18:49 | 55.58981 | 11.66242 | 17377 ft | 324 kts | 276° |
| 2026-04-28 18:49 | 55.58947 | 11.59637 | 17379 ft | 323 kts | 276° |
| 2026-04-28 18:49 | 55.58928 | 11.55704 | 17374 ft | 323 kts | 276° |
| 2026-04-28 18:50 | 55.58906 | 11.51717 | 17376 ft | 323 kts | 276° |
| 2026-04-28 18:50 | 55.58881 | 11.47741 | 17374 ft | 323 kts | 276° |
| 2026-04-28 18:50 | 55.58856 | 11.43782 | 17375 ft | 323 kts | 276° |
| 2026-04-28 18:50 | 55.58831 | 11.39769 | 17377 ft | 323 kts | 276° |
| 2026-04-28 18:51 | 55.58804 | 11.35828 | 17383 ft | 323 kts | 276° |
| 2026-04-28 18:51 | 55.58775 | 11.31871 | 17388 ft | 323 kts | 275° |
| 2026-04-28 18:51 | 55.58746 | 11.27846 | 17390 ft | 323 kts | 275° |
| 2026-04-28 18:51 | 55.58617 | 11.23885 | 17373 ft | 330 kts | 263° |
| 2026-04-28 18:52 | 55.57579 | 11.20241 | 17396 ft | 345 kts | 233° |
| 2026-04-28 18:52 | 55.55895 | 11.17175 | 17395 ft | 344 kts | 233° |
| 2026-04-28 18:52 | 55.54235 | 11.14132 | 17398 ft | 345 kts | 227° |
| 2026-04-28 18:52 | 55.52484 | 11.11277 | 17382 ft | 341 kts | 226° |
| 2026-04-28 18:53 | 55.50714 | 11.08508 | 17074 ft | 342 kts | 225° |
| 2026-04-28 18:53 | 55.48929 | 11.05762 | 16706 ft | 340 kts | 224° |
| 2026-04-28 18:53 | 55.47145 | 11.03041 | 16340 ft | 339 kts | 224° |
| 2026-04-28 18:53 | 55.45371 | 11.00344 | 15974 ft | 337 kts | 224° |
| 2026-04-28 18:54 | 55.43596 | 10.97658 | 15551 ft | 325 kts | 224° |
| 2026-04-28 18:54 | 55.41925 | 10.95129 | 15253 ft | 320 kts | 224° |
| 2026-04-28 18:54 | 55.40238 | 10.92576 | 14909 ft | 320 kts | 224° |
| 2026-04-28 18:54 | 55.38555 | 10.90028 | 14559 ft | 320 kts | 224° |
| 2026-04-28 18:55 | 55.36869 | 10.87487 | 14206 ft | 320 kts | 224° |
| 2026-04-28 18:55 | 55.35723 | 10.85759 | 13966 ft | 320 kts | 224° |
| 2026-04-28 18:55 | 55.33493 | 10.82403 | 13498 ft | 319 kts | 224° |
| 2026-04-28 18:55 | 55.31813 | 10.79880 | 13144 ft | 318 kts | 224° |
| 2026-04-28 18:56 | 55.30133 | 10.77354 | 12790 ft | 316 kts | 223° |
| 2026-04-28 18:56 | 55.28470 | 10.74863 | 12441 ft | 315 kts | 223° |
| 2026-04-28 18:56 | 55.26821 | 10.72390 | 12093 ft | 314 kts | 223° |
| 2026-04-28 18:56 | 55.25160 | 10.69908 | 11745 ft | 312 kts | 223° |
| 2026-04-28 18:57 | 55.23513 | 10.67443 | 11398 ft | 311 kts | 223° |
| 2026-04-28 18:57 | 55.21869 | 10.64990 | 11052 ft | 309 kts | 223° |
| 2026-04-28 18:57 | 55.20250 | 10.62578 | 10710 ft | 307 kts | 223° |
| 2026-04-28 18:57 | 55.18610 | 10.60134 | 10365 ft | 306 kts | 223° |
| 2026-04-28 18:58 | 55.17012 | 10.57753 | 10031 ft | 304 kts | 223° |
| 2026-04-28 18:58 | 55.15387 | 10.55342 | 9692 ft | 302 kts | 223° |
| 2026-04-28 18:58 | 55.13794 | 10.52973 | 9359 ft | 301 kts | 223° |
| 2026-04-28 18:58 | 55.12202 | 10.50608 | 9026 ft | 299 kts | 223° |
| 2026-04-28 18:59 | 55.10638 | 10.48295 | 8703 ft | 297 kts | 222° |
| 2026-04-28 18:59 | 55.09050 | 10.45944 | 8371 ft | 296 kts | 223° |
| 2026-04-28 18:59 | 55.07505 | 10.43658 | 8052 ft | 294 kts | 222° |
| 2026-04-28 18:59 | 55.05938 | 10.41346 | 7727 ft | 293 kts | 222° |
| 2026-04-28 19:00 | 55.04381 | 10.39048 | 7405 ft | 291 kts | 222° |
| 2026-04-28 19:00 | 55.02845 | 10.36788 | 7088 ft | 289 kts | 222° |
| 2026-04-28 19:00 | 55.01316 | 10.34532 | 6765 ft | 287 kts | 221° |
| 2026-04-28 19:00 | 54.99813 | 10.32323 | 6450 ft | 285 kts | 221° |
| 2026-04-28 19:01 | 54.98288 | 10.30084 | 6116 ft | 283 kts | 221° |
| 2026-04-28 19:01 | 54.96783 | 10.27875 | 5817 ft | 281 kts | 221° |
| 2026-04-28 19:01 | 54.95286 | 10.25681 | 5511 ft | 280 kts | 221° |
| 2026-04-28 19:01 | 54.93806 | 10.23513 | 5202 ft | 278 kts | 221° |
| 2026-04-28 19:02 | 54.92332 | 10.21355 | 4899 ft | 277 kts | 221° |
| 2026-04-28 19:02 | 54.90869 | 10.19215 | 4588 ft | 275 kts | 221° |
| 2026-04-28 19:02 | 54.89407 | 10.17081 | 4281 ft | 273 kts | 221° |
| 2026-04-28 19:02 | 54.87945 | 10.14948 | 3984 ft | 271 kts | 221° |
| 2026-04-28 19:03 | 54.86532 | 10.12846 | 3683 ft | 269 kts | 227° |
| 2026-04-28 19:03 | 54.85630 | 10.10069 | 3317 ft | 262 kts | 256° |
| 2026-04-28 19:03 | 54.85016 | 10.07079 | 2972 ft | 262 kts | 253° |
| 2026-04-28 19:03 | 54.84394 | 10.04146 | 2650 ft | 260 kts | 253° |
| 2026-04-28 19:04 | 54.83797 | 10.01146 | 2137 ft | 264 kts | 264° |
| 2026-04-28 19:04 | 54.84040 | 9.98242 | 2018 ft | 236 kts | 303° |
| 2026-04-28 19:04 | 54.85038 | 9.96154 | 1995 ft | 213 kts | 324° |
| 2026-04-28 19:04 | 54.86116 | 9.94490 | 1989 ft | 205 kts | 324° |
| 2026-04-28 19:05 | 54.87199 | 9.92870 | 2022 ft | 201 kts | 326° |
| 2026-04-28 19:05 | 54.88244 | 9.91317 | 1951 ft | 196 kts | 326° |
| 2026-04-28 19:05 | 54.89292 | 9.89774 | 1688 ft | 197 kts | 326° |
| 2026-04-28 19:05 | 54.90248 | 9.88346 | 1470 ft | 165 kts | 326° |
| 2026-04-28 19:06 | 54.91057 | 9.87141 | 1265 ft | 140 kts | 327° |
| 2026-04-28 19:06 | 54.91532 | 9.86447 | 1128 ft | 132 kts | 327° |
| 2026-04-28 19:06 | 54.92422 | 9.85134 | 886 ft | 120 kts | 326° |
| 2026-04-28 19:06 | 54.93044 | 9.84211 | 727 ft | 115 kts | 326° |
| 2026-04-28 19:07 | 54.93662 | 9.83293 | 579 ft | 117 kts | 325° |
| 2026-04-28 19:07 | 54.94280 | 9.82380 | 426 ft | 118 kts | 324° |
| 2026-04-28 19:07 | 54.94915 | 9.81433 | 265 ft | 119 kts | 323° |
| 2026-04-28 19:07 | 54.95543 | 9.80500 | 107 ft | 120 kts | 322° |
| 2026-04-28 19:08 | 54.96164 | 9.79573 | 23 ft | 106 kts | 321° |
| 2026-04-28 19:08 | 54.96605 | 9.78917 | 21 ft | 42 kts | 319° |
| 2026-04-28 19:08 | 54.96768 | 9.78672 | 19 ft | 19 kts | 322° |
| 2026-04-28 19:08 | 54.96864 | 9.78539 | 18 ft | 12 kts | 350° |
| 2026-04-28 19:09 | 54.96909 | 9.78635 | 18 ft | 8 kts | 101° |
| 2026-04-28 19:09 | 54.96892 | 9.78673 | 18 ft | 2 kts | 148° |
| 2026-04-28 19:09 | 54.96887 | 9.78678 | 18 ft | 0 kts | 163° |
| 2026-04-28 19:10 | 54.96886 | 9.78678 | 18 ft | 0 kts | 165° |
| 2026-04-28 19:10 | 54.96874 | 9.78680 | 18 ft | 3 kts | 182° |
| 2026-04-28 19:10 | 54.96845 | 9.78668 | 18 ft | 5 kts | 199° |
| 2026-04-28 19:10 | 54.96788 | 9.78655 | 19 ft | 10 kts | 153° |
| 2026-04-28 19:11 | 54.96716 | 9.78759 | 20 ft | 15 kts | 139° |
| 2026-04-28 19:11 | 54.96619 | 9.78901 | 21 ft | 20 kts | 140° |
| 2026-04-28 19:11 | 54.96522 | 9.79049 | 22 ft | 13 kts | 145° |
| 2026-04-28 19:11 | 54.96451 | 9.78975 | 22 ft | 13 kts | 233° |
| 2026-04-28 19:12 | 54.96390 | 9.78850 | 22 ft | 13 kts | 229° |
| 2026-04-28 19:12 | 54.96328 | 9.78727 | 22 ft | 11 kts | 200° |
| 2026-04-28 19:12 | 54.96284 | 9.78738 | 23 ft | 5 kts | 293° |
| 2026-04-28 19:12 | 54.96299 | 9.78711 | 23 ft | 0 kts | 318° |